Weather reports worldwide

Advertisment
Dunstaffnage, United Kingdom (99006): temperature & dewpoint: 10.07.2018 23:00:00 - 16.07.2018 23:00:00 (BST)Dunstaffnage, United Kingdom (99006): temperature -20cm: 10.07.2018 23:00:00 - 16.07.2018 23:00:00 (BST)Dunstaffnage, United Kingdom (99006): wind speed: 10.07.2018 23:00:00 - 16.07.2018 23:00:00 (BST)Dunstaffnage, United Kingdom (99006): wind direction: 10.07.2018 23:00:00 - 16.07.2018 23:00:00 (BST)Dunstaffnage, United Kingdom (99006): precipitation: 10.07.2018 23:00:00 - 16.07.2018 23:00:00 (BST)
Date & Time tt [°C] td [°C] tt -20cm [°C] ff [km/h] ff [kn] dd rr [mm]
16.07.2018 23:00:00 - - - - - - -
16.07.2018 22:00:00 - - - - - - -
16.07.2018 21:00:00 14,6 10,0 - 8 4 SW 0,0
16.07.2018 20:00:00 15,6 10,3 - 9 5 SW 0,0
16.07.2018 19:00:00 16,5 10,1 - 11 6 SW 0,0
16.07.2018 18:00:00 17,2 10,4 - 11 6 SW 0,0
16.07.2018 17:00:00 16,8 10,9 - 13 7 SW 0,0
16.07.2018 16:00:00 16,8 11,3 - 15 8 SW 0,0
16.07.2018 15:00:00 17,1 11,2 - 18 10 WSW 0,0
16.07.2018 14:00:00 16,9 12,5 - 15 8 WSW 0,0
16.07.2018 13:00:00 16,8 12,5 - 15 8 SSW 0,0
16.07.2018 12:00:00 16,9 11,9 - 15 8 WSW 0,0
16.07.2018 11:00:00 16,1 13,0 - 13 7 WSW 0,0
16.07.2018 10:00:00 14,9 12,4 17,0 15 8 SW 0,0
16.07.2018 09:00:00 13,8 12,9 - 13 7 SW 0,0
16.07.2018 08:00:00 14,3 14,0 - 2 1 S 0,0
16.07.2018 07:00:00 13,1 12,8 - 2 1 NNW 0,0
16.07.2018 06:00:00 12,8 12,4 - 4 2 E 0,0
16.07.2018 05:00:00 12,6 12,3 - 4 2 WSW 0,0
16.07.2018 04:00:00 12,7 12,3 - 4 2 WSW 0,0
16.07.2018 03:00:00 12,8 12,3 - 4 2 SW 0,0
16.07.2018 02:00:00 13,0 12,5 - 13 7 W 0,0
16.07.2018 01:00:00 13,7 13,2 - 15 8 WSW 0,0
16.07.2018 00:00:00 15,5 14,8 - 8 4 SW 0,0
15.07.2018 23:00:00 16,6 15,6 - 8 4 SSE 0,0
15.07.2018 22:00:00 17,0 15,6 - 9 5 SSE 0,0
15.07.2018 21:00:00 17,2 15,7 - 11 6 SSE 0,0
15.07.2018 20:00:00 17,2 15,8 - 13 7 SSE 0,0
15.07.2018 19:00:00 17,5 16,4 - 5 3 SE 0,0
15.07.2018 18:00:00 18,0 16,8 - 5 3 SSE 0,0
15.07.2018 17:00:00 17,9 16,8 - 8 4 S 0,0
15.07.2018 16:00:00 17,8 16,5 - 9 5 S 0,0
15.07.2018 15:00:00 17,6 16,5 - 11 6 S 0,0
15.07.2018 14:00:00 17,4 16,7 - 11 6 SSW 0,0
15.07.2018 13:00:00 17,6 17,4 - 5 3 SSE 0,0
15.07.2018 12:00:00 16,2 15,8 - 2 1 NNE 0,0
15.07.2018 11:00:00 16,7 16,1 - 8 4 SW 0,0
15.07.2018 10:00:00 16,2 15,9 17,4 2 1 NW 0,0
15.07.2018 09:00:00 15,9 15,6 - 0 0 N 0,0
15.07.2018 08:00:00 15,7 15,3 - 4 2 WNW 0,0
15.07.2018 07:00:00 14,9 14,4 - 2 1 W 0,0
15.07.2018 06:00:00 14,5 13,9 - 4 2 NW 0,0
15.07.2018 05:00:00 14,9 14,3 - 0 0 N 0,0
15.07.2018 04:00:00 16,5 16,1 - 9 5 S 0,0
15.07.2018 03:00:00 14,6 14,2 - 5 3 WNW 0,0
15.07.2018 02:00:00 14,7 14,2 - 2 1 SE 0,0
15.07.2018 01:00:00 15,2 14,7 - 4 2 WNW 0,0
15.07.2018 00:00:00 15,0 14,3 - 2 1 NE 0,0
14.07.2018 23:00:00 15,5 14,6 - 2 1 NW 0,0
14.07.2018 22:00:00 15,3 14,2 - 2 1 W 0,0
14.07.2018 21:00:00 15,5 13,9 - 2 1 N 0,0
14.07.2018 20:00:00 17,0 13,7 - 8 4 W 0,0
14.07.2018 19:00:00 18,3 13,8 - 9 5 W 0,0
14.07.2018 18:00:00 19,1 13,2 - 11 6 WSW 0,0
14.07.2018 17:00:00 19,3 13,7 - 13 7 S 0,0
14.07.2018 16:00:00 17,0 12,3 - 9 5 WNW 0,0
14.07.2018 15:00:00 19,3 13,2 - 16 9 WSW 0,0
14.07.2018 14:00:00 20,3 12,7 - 15 8 WSW 0,0
14.07.2018 13:00:00 21,7 11,7 - 18 10 SW 0,0
14.07.2018 12:00:00 19,2 12,4 - 18 10 WSW 0,0
14.07.2018 11:00:00 18,8 12,9 - 13 7 SW 0,0
14.07.2018 10:00:00 15,9 13,1 17,2 8 4 NNW 0,0
14.07.2018 09:00:00 14,6 12,9 - 2 1 WNW 0,0
14.07.2018 08:00:00 13,8 13,2 - 2 1 W 0,0
14.07.2018 07:00:00 12,7 12,2 - 4 2 WSW 0,0
14.07.2018 06:00:00 11,6 11,0 - 2 1 SW 0,0
14.07.2018 05:00:00 12,3 11,9 - 8 4 E 0,0
14.07.2018 04:00:00 10,9 10,4 - 4 2 SSW 0,0
14.07.2018 03:00:00 11,1 10,5 - 0 0 N 0,0
14.07.2018 02:00:00 10,9 10,1 - 2 1 NE 0,0
14.07.2018 01:00:00 11,7 10,7 - 4 2 S 0,0
14.07.2018 00:00:00 12,9 11,5 - 4 2 E 0,0
13.07.2018 23:00:00 14,2 12,6 - 9 5 WSW 0,0
13.07.2018 22:00:00 14,5 12,0 - 9 5 SW 0,0
13.07.2018 21:00:00 16,0 11,8 - 11 6 WSW 0,0
13.07.2018 20:00:00 16,8 11,5 - 13 7 WSW 0,0
13.07.2018 19:00:00 17,1 11,2 - 16 9 SW 0,0
13.07.2018 18:00:00 19,0 10,7 - 16 9 SW 0,0
13.07.2018 17:00:00 19,8 12,2 - 18 10 WSW 0,0
13.07.2018 16:00:00 20,3 12,0 - 16 9 WSW 0,0
13.07.2018 15:00:00 19,3 11,9 - 18 10 WSW 0,0
13.07.2018 14:00:00 19,5 12,0 - 18 10 WSW 0,0
13.07.2018 13:00:00 19,3 11,9 - 16 9 WSW 0,0
13.07.2018 12:00:00 17,4 12,5 - 11 6 SW 0,0
13.07.2018 11:00:00 15,8 12,8 - 8 4 WSW 0,0
13.07.2018 10:00:00 14,6 12,5 17,2 5 3 W 0,0
13.07.2018 09:00:00 15,0 12,7 - 4 2 W 0,0
13.07.2018 08:00:00 14,1 12,6 - 4 2 S 0,0
13.07.2018 07:00:00 13,7 12,6 - 2 1 WSW 0,0
13.07.2018 06:00:00 13,4 12,3 - 2 1 E 0,0
13.07.2018 05:00:00 13,3 12,0 - 4 2 WNW 0,0
13.07.2018 04:00:00 13,5 11,9 - 2 1 SW 0,0
13.07.2018 03:00:00 13,5 11,9 - 2 1 S 0,0
13.07.2018 02:00:00 13,7 12,5 - 5 3 SW 0,0
13.07.2018 01:00:00 13,9 12,5 - 2 1 NE 0,0
13.07.2018 00:00:00 14,3 12,6 - 4 2 SW 0,0
12.07.2018 23:00:00 14,7 12,7 - 4 2 SW 0,0
12.07.2018 22:00:00 15,0 13,3 - 4 2 WSW 0,0
12.07.2018 21:00:00 15,0 13,4 - 11 6 WSW 0,0
12.07.2018 20:00:00 15,3 13,2 - 11 6 WSW 0,0
12.07.2018 19:00:00 16,8 13,8 - 13 7 WSW 0,0
12.07.2018 18:00:00 17,3 14,1 - 13 7 SW 0,0
12.07.2018 17:00:00 17,8 14,0 - 15 8 SW 0,0
12.07.2018 16:00:00 19,8 15,6 - 13 7 WSW 0,0
12.07.2018 15:00:00 18,7 15,2 - 13 7 W 0,0
12.07.2018 14:00:00 17,4 15,6 - 11 6 WSW 0,0
12.07.2018 13:00:00 16,7 15,5 - 9 5 WNW 0,0
12.07.2018 12:00:00 15,4 15,0 - 4 2 NNW 0,0
12.07.2018 11:00:00 15,2 14,8 - 4 2 ENE 0,0
12.07.2018 10:00:00 14,7 14,4 17,0 2 1 N 0,0
12.07.2018 09:00:00 14,7 14,4 - 2 1 N 0,0
12.07.2018 08:00:00 14,0 13,6 - 2 1 N 0,0
12.07.2018 07:00:00 14,1 13,8 - 2 1 NE 0,0
12.07.2018 06:00:00 13,9 13,5 - 5 3 N 0,0
12.07.2018 05:00:00 14,0 13,6 - 0 0 N 0,0
12.07.2018 04:00:00 14,2 13,7 - 4 2 N 0,0
12.07.2018 03:00:00 14,3 13,8 - 8 4 N 0,0
12.07.2018 02:00:00 14,4 13,7 - 2 1 WSW 0,0
12.07.2018 01:00:00 14,5 13,8 - 5 3 W 0,0
12.07.2018 00:00:00 14,7 13,7 - 4 2 WSW 0,0
11.07.2018 23:00:00 14,7 13,4 - 5 3 WSW 0,0
11.07.2018 22:00:00 15,3 13,9 - 4 2 WNW 0,0
11.07.2018 21:00:00 15,4 13,4 - 9 5 W 0,0
11.07.2018 20:00:00 15,4 13,5 - 8 4 SW 0,0
11.07.2018 19:00:00 15,6 13,8 - 13 7 WSW 0,0
11.07.2018 18:00:00 16,1 14,1 - 15 8 WSW 0,0
11.07.2018 17:00:00 15,7 13,6 - 13 7 W 0,0
11.07.2018 16:00:00 15,9 14,1 - 15 8 WSW 0,0
11.07.2018 15:00:00 15,9 14,1 - 11 6 W 0,0
11.07.2018 14:00:00 15,9 14,8 - 11 6 W 0,0
11.07.2018 13:00:00 16,2 15,1 - 13 7 W 0,0
11.07.2018 12:00:00 15,4 14,1 - 9 5 W 0,0
11.07.2018 11:00:00 15,0 14,1 - 15 8 WSW 0,0
11.07.2018 10:00:00 14,8 14,5 17,2 8 4 W 0,0
11.07.2018 09:00:00 14,6 14,3 - 5 3 W 0,0
11.07.2018 08:00:00 14,0 13,7 - 5 3 W 0,0
11.07.2018 07:00:00 13,8 13,5 - 5 3 W 0,0
11.07.2018 06:00:00 13,7 13,3 - 5 3 WSW 0,0
11.07.2018 05:00:00 13,7 13,3 - 9 5 WSW 0,0
11.07.2018 04:00:00 13,9 13,4 - 9 5 W 0,0
11.07.2018 03:00:00 13,9 13,3 - 5 3 SW 0,0
11.07.2018 02:00:00 14,0 13,3 - 9 5 WSW 0,0
11.07.2018 01:00:00 14,1 13,3 - 9 5 WSW 0,0
11.07.2018 00:00:00 14,3 13,3 - 9 5 WSW 0,0
10.07.2018 23:00:00 14,7 13,6 - 9 5 WSW 0,0

tt = temperature
td = dewpoint
tt -20cm = temperature -20cm
ff = wind speed
dd = wind direction
rr = precipitation

Next stations